aviador You're here:

CYBQ Decoded Metar

in
Report Time2017-05-24 17:00:00
UTC Time2017-05-24 17:52:57
Flight Rules vfr VFR
Wind260° at 04 kt
W.Decomp.*RWY 25: 3.9 kt HW 0.7 kt RCW
W.Rank260° ranks 35
Current wind is below 260° avg. (6.8)
Visibility9999 m
Phenomena:N/A
Clouds:N/A
Expected CloudBase > 3,200 ft AGL from Temp-Dew spread
CeilingNone
Temp17°C
Dew Point09°C (59% RH)
AAT15.3°C
QNH995 hPa
Raw Report
METAR CYBQ 241700Z AUTO 26004KT 230V310 9SM CLR 17/09 A2937 RMK
SLP957 DENSITY ALT 1900FT=

Extra information for CYBQ:More info

Social comments